sensor_id;sensor_type;location;lat;lon;timestamp;P1;durP1;ratioP1;P2;durP2;ratioP2
37559;SDS011;23398;50.928;7.084;2023-04-24T00:00:23;0.70;;;0.60;;
37559;SDS011;23398;50.928;7.084;2023-04-24T00:02:49;0.60;;;0.60;;
37559;SDS011;23398;50.928;7.084;2023-04-24T00:05:15;2.45;;;0.70;;
37559;SDS011;23398;50.928;7.084;2023-04-24T00:07:42;0.90;;;0.70;;
37559;SDS011;23398;50.928;7.084;2023-04-24T00:10:09;0.98;;;0.80;;
37559;SDS011;23398;50.928;7.084;2023-04-24T00:12:35;0.70;;;0.70;;
37559;SDS011;23398;50.928;7.084;2023-04-24T00:15:01;0.70;;;0.65;;
37559;SDS011;23398;50.928;7.084;2023-04-24T00:17:27;0.70;;;0.70;;
37559;SDS011;23398;50.928;7.084;2023-04-24T00:19:53;0.65;;;0.65;;
37559;SDS011;23398;50.928;7.084;2023-04-24T00:22:26;0.63;;;0.63;;
37559;SDS011;23398;50.928;7.084;2023-04-24T00:24:52;1.23;;;0.82;;
37559;SDS011;23398;50.928;7.084;2023-04-24T00:27:18;1.00;;;0.90;;
37559;SDS011;23398;50.928;7.084;2023-04-24T00:29:43;0.70;;;0.70;;
37559;SDS011;23398;50.928;7.084;2023-04-24T00:32:09;1.00;;;0.90;;
37559;SDS011;23398;50.928;7.084;2023-04-24T00:34:34;0.82;;;0.70;;
37559;SDS011;23398;50.928;7.084;2023-04-24T00:37:00;0.68;;;0.68;;
37559;SDS011;23398;50.928;7.084;2023-04-24T00:39:26;0.70;;;0.70;;
37559;SDS011;23398;50.928;7.084;2023-04-24T00:41:51;0.80;;;0.70;;
37559;SDS011;23398;50.928;7.084;2023-04-24T00:44:18;0.80;;;0.80;;
37559;SDS011;23398;50.928;7.084;2023-04-24T00:46:44;1.10;;;0.80;;
37559;SDS011;23398;50.928;7.084;2023-04-24T00:49:10;0.80;;;0.80;;
37559;SDS011;23398;50.928;7.084;2023-04-24T00:51:37;0.70;;;0.70;;
37559;SDS011;23398;50.928;7.084;2023-04-24T00:54:02;1.17;;;0.90;;
37559;SDS011;23398;50.928;7.084;2023-04-24T00:56:28;1.02;;;0.73;;
37559;SDS011;23398;50.928;7.084;2023-04-24T00:58:53;0.70;;;0.70;;
37559;SDS011;23398;50.928;7.084;2023-04-24T01:01:20;0.88;;;0.80;;
37559;SDS011;23398;50.928;7.084;2023-04-24T01:03:46;1.25;;;0.70;;
37559;SDS011;23398;50.928;7.084;2023-04-24T01:06:14;0.80;;;0.80;;
37559;SDS011;23398;50.928;7.084;2023-04-24T01:08:40;0.95;;;0.80;;
37559;SDS011;23398;50.928;7.084;2023-04-24T01:11:06;0.70;;;0.70;;
37559;SDS011;23398;50.928;7.084;2023-04-24T01:13:32;0.80;;;0.80;;
37559;SDS011;23398;50.928;7.084;2023-04-24T01:15:58;1.63;;;0.90;;
37559;SDS011;23398;50.928;7.084;2023-04-24T01:18:25;2.38;;;0.98;;
37559;SDS011;23398;50.928;7.084;2023-04-24T01:20:53;1.08;;;0.90;;
37559;SDS011;23398;50.928;7.084;2023-04-24T01:23:21;1.10;;;1.00;;
37559;SDS011;23398;50.928;7.084;2023-04-24T01:25:47;1.85;;;0.90;;
37559;SDS011;23398;50.928;7.084;2023-04-24T01:28:14;2.25;;;1.00;;
37559;SDS011;23398;50.928;7.084;2023-04-24T01:30:40;1.67;;;0.90;;
37559;SDS011;23398;50.928;7.084;2023-04-24T01:33:06;1.33;;;0.90;;
37559;SDS011;23398;50.928;7.084;2023-04-24T01:35:32;1.00;;;0.88;;
37559;SDS011;23398;50.928;7.084;2023-04-24T01:37:58;1.80;;;0.90;;
37559;SDS011;23398;50.928;7.084;2023-04-24T01:40:24;1.42;;;0.90;;
37559;SDS011;23398;50.928;7.084;2023-04-24T01:42:50;0.70;;;0.70;;
37559;SDS011;23398;50.928;7.084;2023-04-24T01:45:16;1.20;;;0.90;;
37559;SDS011;23398;50.928;7.084;2023-04-24T01:47:41;1.20;;;1.00;;
37559;SDS011;23398;50.928;7.084;2023-04-24T01:50:07;1.05;;;0.80;;
37559;SDS011;23398;50.928;7.084;2023-04-24T01:52:33;1.00;;;0.95;;
37559;SDS011;23398;50.928;7.084;2023-04-24T01:55:01;1.20;;;1.10;;
37559;SDS011;23398;50.928;7.084;2023-04-24T01:57:28;1.20;;;1.10;;
37559;SDS011;23398;50.928;7.084;2023-04-24T01:59:55;1.30;;;1.10;;
37559;SDS011;23398;50.928;7.084;2023-04-24T02:02:21;1.52;;;1.30;;
37559;SDS011;23398;50.928;7.084;2023-04-24T02:04:49;1.42;;;1.25;;
37559;SDS011;23398;50.928;7.084;2023-04-24T02:07:15;1.80;;;1.17;;
37559;SDS011;23398;50.928;7.084;2023-04-24T02:09:40;1.95;;;1.40;;
37559;SDS011;23398;50.928;7.084;2023-04-24T02:12:06;3.15;;;1.33;;
37559;SDS011;23398;50.928;7.084;2023-04-24T02:14:32;2.63;;;1.30;;
37559;SDS011;23398;50.928;7.084;2023-04-24T02:16:58;2.00;;;1.50;;
37559;SDS011;23398;50.928;7.084;2023-04-24T02:19:23;1.60;;;1.50;;
37559;SDS011;23398;50.928;7.084;2023-04-24T02:21:49;2.25;;;1.88;;
37559;SDS011;23398;50.928;7.084;2023-04-24T02:24:15;1.60;;;1.50;;
37559;SDS011;23398;50.928;7.084;2023-04-24T02:26:41;1.77;;;1.67;;
37559;SDS011;23398;50.928;7.084;2023-04-24T02:29:07;2.60;;;2.35;;
37559;SDS011;23398;50.928;7.084;2023-04-24T02:31:32;3.28;;;2.78;;
37559;SDS011;23398;50.928;7.084;2023-04-24T02:33:58;2.60;;;2.13;;
37559;SDS011;23398;50.928;7.084;2023-04-24T02:36:24;3.53;;;2.60;;
37559;SDS011;23398;50.928;7.084;2023-04-24T02:38:50;2.55;;;2.28;;
37559;SDS011;23398;50.928;7.084;2023-04-24T02:41:15;2.55;;;2.00;;
37559;SDS011;23398;50.928;7.084;2023-04-24T02:43:41;2.30;;;1.92;;
37559;SDS011;23398;50.928;7.084;2023-04-24T02:46:06;2.42;;;2.22;;
37559;SDS011;23398;50.928;7.084;2023-04-24T02:48:32;2.40;;;2.10;;
37559;SDS011;23398;50.928;7.084;2023-04-24T02:50:58;2.63;;;2.40;;
37559;SDS011;23398;50.928;7.084;2023-04-24T02:53:23;3.08;;;2.28;;
37559;SDS011;23398;50.928;7.084;2023-04-24T02:55:49;3.00;;;2.42;;
37559;SDS011;23398;50.928;7.084;2023-04-24T02:58:14;3.13;;;2.33;;
37559;SDS011;23398;50.928;7.084;2023-04-24T03:00:40;2.78;;;2.50;;
37559;SDS011;23398;50.928;7.084;2023-04-24T03:03:06;3.33;;;2.53;;
37559;SDS011;23398;50.928;7.084;2023-04-24T03:05:32;3.20;;;2.53;;
37559;SDS011;23398;50.928;7.084;2023-04-24T03:07:57;4.25;;;2.80;;
37559;SDS011;23398;50.928;7.084;2023-04-24T03:10:23;3.80;;;2.45;;
37559;SDS011;23398;50.928;7.084;2023-04-24T03:12:49;2.80;;;2.47;;
37559;SDS011;23398;50.928;7.084;2023-04-24T03:15:15;3.05;;;2.75;;
37559;SDS011;23398;50.928;7.084;2023-04-24T03:17:40;3.13;;;2.33;;
37559;SDS011;23398;50.928;7.084;2023-04-24T03:20:06;3.47;;;2.70;;
37559;SDS011;23398;50.928;7.084;2023-04-24T03:22:33;3.95;;;2.97;;
37559;SDS011;23398;50.928;7.084;2023-04-24T03:24:59;3.47;;;2.97;;
37559;SDS011;23398;50.928;7.084;2023-04-24T03:27:25;3.42;;;3.10;;
37559;SDS011;23398;50.928;7.084;2023-04-24T03:29:51;3.33;;;3.03;;
37559;SDS011;23398;50.928;7.084;2023-04-24T03:32:20;3.97;;;2.95;;
37559;SDS011;23398;50.928;7.084;2023-04-24T03:34:48;3.25;;;2.85;;
37559;SDS011;23398;50.928;7.084;2023-04-24T03:37:15;2.92;;;2.67;;
37559;SDS011;23398;50.928;7.084;2023-04-24T03:39:40;3.80;;;3.40;;
37559;SDS011;23398;50.928;7.084;2023-04-24T03:42:06;5.25;;;3.40;;
37559;SDS011;23398;50.928;7.084;2023-04-24T03:44:33;3.38;;;3.08;;
37559;SDS011;23398;50.928;7.084;2023-04-24T03:46:59;3.55;;;2.78;;
37559;SDS011;23398;50.928;7.084;2023-04-24T03:49:25;3.25;;;2.95;;
37559;SDS011;23398;50.928;7.084;2023-04-24T03:51:50;3.00;;;2.60;;
37559;SDS011;23398;50.928;7.084;2023-04-24T03:54:17;4.07;;;2.45;;
37559;SDS011;23398;50.928;7.084;2023-04-24T03:56:43;3.05;;;2.75;;
37559;SDS011;23398;50.928;7.084;2023-04-24T03:59:08;2.75;;;2.55;;
37559;SDS011;23398;50.928;7.084;2023-04-24T04:01:34;3.28;;;2.78;;
37559;SDS011;23398;50.928;7.084;2023-04-24T04:04:04;2.90;;;2.35;;
37559;SDS011;23398;50.928;7.084;2023-04-24T04:06:33;4.03;;;2.83;;
37559;SDS011;23398;50.928;7.084;2023-04-24T04:08:59;4.10;;;2.97;;
37559;SDS011;23398;50.928;7.084;2023-04-24T04:11:25;4.60;;;2.92;;
37559;SDS011;23398;50.928;7.084;2023-04-24T04:13:51;3.08;;;2.72;;
37559;SDS011;23398;50.928;7.084;2023-04-24T04:16:16;2.83;;;2.25;;
37559;SDS011;23398;50.928;7.084;2023-04-24T04:18:43;2.50;;;2.30;;
37559;SDS011;23398;50.928;7.084;2023-04-24T04:21:08;2.60;;;2.40;;
37559;SDS011;23398;50.928;7.084;2023-04-24T04:23:34;3.15;;;2.53;;
37559;SDS011;23398;50.928;7.084;2023-04-24T04:26:00;3.10;;;2.50;;
37559;SDS011;23398;50.928;7.084;2023-04-24T04:28:27;2.53;;;2.33;;
37559;SDS011;23398;50.928;7.084;2023-04-24T04:30:52;3.10;;;2.58;;
37559;SDS011;23398;50.928;7.084;2023-04-24T04:33:22;2.63;;;2.42;;
37559;SDS011;23398;50.928;7.084;2023-04-24T04:35:48;3.05;;;2.70;;
37559;SDS011;23398;50.928;7.084;2023-04-24T04:38:15;2.67;;;2.47;;
37559;SDS011;23398;50.928;7.084;2023-04-24T04:40:41;3.08;;;2.60;;
37559;SDS011;23398;50.928;7.084;2023-04-24T04:43:07;3.75;;;2.50;;
37559;SDS011;23398;50.928;7.084;2023-04-24T04:45:33;6.22;;;2.45;;
37559;SDS011;23398;50.928;7.084;2023-04-24T04:47:59;2.88;;;2.67;;
37559;SDS011;23398;50.928;7.084;2023-04-24T04:50:26;3.20;;;2.90;;
37559;SDS011;23398;50.928;7.084;2023-04-24T04:52:52;2.95;;;2.55;;
37559;SDS011;23398;50.928;7.084;2023-04-24T04:55:18;2.92;;;2.63;;
37559;SDS011;23398;50.928;7.084;2023-04-24T04:57:45;3.00;;;2.63;;
37559;SDS011;23398;50.928;7.084;2023-04-24T05:00:11;2.80;;;2.55;;
37559;SDS011;23398;50.928;7.084;2023-04-24T05:02:40;2.95;;;2.40;;
37559;SDS011;23398;50.928;7.084;2023-04-24T05:05:06;3.03;;;2.72;;
37559;SDS011;23398;50.928;7.084;2023-04-24T05:07:32;2.72;;;2.53;;
37559;SDS011;23398;50.928;7.084;2023-04-24T05:09:58;3.05;;;2.75;;
37559;SDS011;23398;50.928;7.084;2023-04-24T05:12:23;5.88;;;2.80;;
37559;SDS011;23398;50.928;7.084;2023-04-24T05:14:49;2.85;;;2.47;;
37559;SDS011;23398;50.928;7.084;2023-04-24T05:17:14;6.18;;;3.17;;
37559;SDS011;23398;50.928;7.084;2023-04-24T05:19:41;3.70;;;2.75;;
37559;SDS011;23398;50.928;7.084;2023-04-24T05:22:07;3.08;;;2.78;;
37559;SDS011;23398;50.928;7.084;2023-04-24T05:24:33;3.30;;;2.60;;
37559;SDS011;23398;50.928;7.084;2023-04-24T05:26:59;2.85;;;2.53;;
37559;SDS011;23398;50.928;7.084;2023-04-24T05:29:25;3.08;;;2.78;;
37559;SDS011;23398;50.928;7.084;2023-04-24T05:31:55;3.05;;;2.67;;
37559;SDS011;23398;50.928;7.084;2023-04-24T05:34:21;3.30;;;2.75;;
37559;SDS011;23398;50.928;7.084;2023-04-24T05:36:47;4.13;;;3.08;;
37559;SDS011;23398;50.928;7.084;2023-04-24T05:39:13;3.38;;;2.67;;
37559;SDS011;23398;50.928;7.084;2023-04-24T05:41:39;3.15;;;2.80;;
37559;SDS011;23398;50.928;7.084;2023-04-24T05:44:05;3.30;;;3.00;;
37559;SDS011;23398;50.928;7.084;2023-04-24T05:46:31;3.03;;;2.72;;
37559;SDS011;23398;50.928;7.084;2023-04-24T05:48:56;4.10;;;2.88;;
37559;SDS011;23398;50.928;7.084;2023-04-24T05:51:22;3.80;;;2.78;;
37559;SDS011;23398;50.928;7.084;2023-04-24T05:53:48;3.65;;;2.75;;
37559;SDS011;23398;50.928;7.084;2023-04-24T05:56:13;4.03;;;2.90;;
37559;SDS011;23398;50.928;7.084;2023-04-24T05:58:40;2.95;;;2.53;;
37559;SDS011;23398;50.928;7.084;2023-04-24T06:01:06;4.05;;;2.88;;
37559;SDS011;23398;50.928;7.084;2023-04-24T06:03:31;3.20;;;2.70;;
37559;SDS011;23398;50.928;7.084;2023-04-24T06:05:57;3.30;;;2.85;;
37559;SDS011;23398;50.928;7.084;2023-04-24T06:08:23;3.58;;;2.78;;
37559;SDS011;23398;50.928;7.084;2023-04-24T06:10:48;3.10;;;2.80;;
37559;SDS011;23398;50.928;7.084;2023-04-24T06:13:14;3.13;;;2.63;;
37559;SDS011;23398;50.928;7.084;2023-04-24T06:15:40;4.30;;;2.83;;
37559;SDS011;23398;50.928;7.084;2023-04-24T06:18:06;3.95;;;2.78;;
37559;SDS011;23398;50.928;7.084;2023-04-24T06:20:32;3.00;;;2.63;;
37559;SDS011;23398;50.928;7.084;2023-04-24T06:22:58;4.53;;;2.85;;
37559;SDS011;23398;50.928;7.084;2023-04-24T06:25:26;3.25;;;2.75;;
37559;SDS011;23398;50.928;7.084;2023-04-24T06:27:53;3.28;;;2.80;;
37559;SDS011;23398;50.928;7.084;2023-04-24T06:30:19;3.00;;;2.65;;
37559;SDS011;23398;50.928;7.084;2023-04-24T06:32:44;2.90;;;2.60;;
37559;SDS011;23398;50.928;7.084;2023-04-24T06:35:10;2.63;;;2.42;;
37559;SDS011;23398;50.928;7.084;2023-04-24T06:37:37;2.92;;;2.47;;
37559;SDS011;23398;50.928;7.084;2023-04-24T06:40:07;6.05;;;2.13;;
37559;SDS011;23398;50.928;7.084;2023-04-24T06:42:33;2.85;;;2.30;;
37559;SDS011;23398;50.928;7.084;2023-04-24T06:44:59;2.63;;;2.20;;
37559;SDS011;23398;50.928;7.084;2023-04-24T06:47:25;2.70;;;2.40;;
37559;SDS011;23398;50.928;7.084;2023-04-24T06:49:51;2.47;;;2.05;;
37559;SDS011;23398;50.928;7.084;2023-04-24T06:52:17;2.60;;;1.88;;
37559;SDS011;23398;50.928;7.084;2023-04-24T06:54:43;3.05;;;1.80;;
37559;SDS011;23398;50.928;7.084;2023-04-24T06:57:08;2.70;;;1.35;;
37559;SDS011;23398;50.928;7.084;2023-04-24T06:59:35;1.95;;;1.30;;
37559;SDS011;23398;50.928;7.084;2023-04-24T07:02:01;3.53;;;1.30;;
37559;SDS011;23398;50.928;7.084;2023-04-24T07:04:27;1.50;;;1.30;;
37559;SDS011;23398;50.928;7.084;2023-04-24T07:06:53;1.83;;;1.40;;
37559;SDS011;23398;50.928;7.084;2023-04-24T07:09:21;1.50;;;1.40;;
37559;SDS011;23398;50.928;7.084;2023-04-24T07:11:47;1.45;;;1.20;;
37559;SDS011;23398;50.928;7.084;2023-04-24T07:14:13;2.35;;;1.40;;
37559;SDS011;23398;50.928;7.084;2023-04-24T07:16:38;2.40;;;1.40;;
37559;SDS011;23398;50.928;7.084;2023-04-24T07:19:04;1.60;;;1.17;;
37559;SDS011;23398;50.928;7.084;2023-04-24T07:21:30;1.95;;;1.27;;
37559;SDS011;23398;50.928;7.084;2023-04-24T07:23:56;1.33;;;1.05;;
37559;SDS011;23398;50.928;7.084;2023-04-24T07:26:23;2.00;;;1.20;;
37559;SDS011;23398;50.928;7.084;2023-04-24T07:28:48;1.40;;;1.20;;
37559;SDS011;23398;50.928;7.084;2023-04-24T07:31:14;1.40;;;1.00;;
37559;SDS011;23398;50.928;7.084;2023-04-24T07:33:40;2.00;;;1.08;;
37559;SDS011;23398;50.928;7.084;2023-04-24T07:36:05;1.50;;;1.08;;
37559;SDS011;23398;50.928;7.084;2023-04-24T07:38:31;1.70;;;1.10;;
37559;SDS011;23398;50.928;7.084;2023-04-24T07:40:57;3.35;;;1.60;;
37559;SDS011;23398;50.928;7.084;2023-04-24T07:43:22;2.17;;;1.50;;
37559;SDS011;23398;50.928;7.084;2023-04-24T07:45:49;4.65;;;1.65;;
37559;SDS011;23398;50.928;7.084;2023-04-24T07:48:15;3.17;;;1.23;;
37559;SDS011;23398;50.928;7.084;2023-04-24T07:50:42;1.33;;;1.02;;
37559;SDS011;23398;50.928;7.084;2023-04-24T07:53:08;1.40;;;0.90;;
37559;SDS011;23398;50.928;7.084;2023-04-24T07:55:34;1.05;;;0.80;;
37559;SDS011;23398;50.928;7.084;2023-04-24T07:57:59;1.25;;;0.95;;
37559;SDS011;23398;50.928;7.084;2023-04-24T08:00:25;1.55;;;1.00;;
37559;SDS011;23398;50.928;7.084;2023-04-24T08:02:51;2.20;;;1.00;;
37559;SDS011;23398;50.928;7.084;2023-04-24T08:05:16;1.15;;;0.90;;
37559;SDS011;23398;50.928;7.084;2023-04-24T08:07:42;1.25;;;0.95;;
37559;SDS011;23398;50.928;7.084;2023-04-24T08:10:09;0.57;;;0.57;;
37559;SDS011;23398;50.928;7.084;2023-04-24T08:12:36;0.90;;;0.70;;
37559;SDS011;23398;50.928;7.084;2023-04-24T08:15:03;0.80;;;0.70;;
37559;SDS011;23398;50.928;7.084;2023-04-24T08:17:29;1.25;;;0.80;;
37559;SDS011;23398;50.928;7.084;2023-04-24T08:19:55;1.55;;;0.82;;
37559;SDS011;23398;50.928;7.084;2023-04-24T08:22:26;1.02;;;0.90;;
37559;SDS011;23398;50.928;7.084;2023-04-24T08:24:52;1.02;;;0.93;;
37559;SDS011;23398;50.928;7.084;2023-04-24T08:27:18;1.58;;;1.10;;
37559;SDS011;23398;50.928;7.084;2023-04-24T08:29:43;1.35;;;0.95;;
37559;SDS011;23398;50.928;7.084;2023-04-24T08:32:09;1.25;;;1.00;;
37559;SDS011;23398;50.928;7.084;2023-04-24T08:34:35;3.00;;;0.88;;
37559;SDS011;23398;50.928;7.084;2023-04-24T08:37:00;0.80;;;0.80;;
37559;SDS011;23398;50.928;7.084;2023-04-24T08:39:26;2.10;;;1.10;;
37559;SDS011;23398;50.928;7.084;2023-04-24T08:41:52;1.02;;;0.80;;
37559;SDS011;23398;50.928;7.084;2023-04-24T08:44:18;0.80;;;0.77;;
37559;SDS011;23398;50.928;7.084;2023-04-24T08:46:44;0.88;;;0.70;;
37559;SDS011;23398;50.928;7.084;2023-04-24T08:49:13;0.77;;;0.70;;
37559;SDS011;23398;50.928;7.084;2023-04-24T08:51:41;1.95;;;0.70;;
37559;SDS011;23398;50.928;7.084;2023-04-24T08:54:06;0.70;;;0.70;;
37559;SDS011;23398;50.928;7.084;2023-04-24T08:56:33;0.75;;;0.70;;
37559;SDS011;23398;50.928;7.084;2023-04-24T08:59:03;1.70;;;1.00;;
37559;SDS011;23398;50.928;7.084;2023-04-24T09:01:29;2.10;;;1.40;;
37559;SDS011;23398;50.928;7.084;2023-04-24T09:03:58;2.58;;;1.30;;
37559;SDS011;23398;50.928;7.084;2023-04-24T09:06:27;1.23;;;1.00;;
37559;SDS011;23398;50.928;7.084;2023-04-24T09:08:53;2.63;;;1.02;;
37559;SDS011;23398;50.928;7.084;2023-04-24T09:11:20;1.10;;;1.00;;
37559;SDS011;23398;50.928;7.084;2023-04-24T09:13:49;1.88;;;1.20;;
37559;SDS011;23398;50.928;7.084;2023-04-24T09:16:15;1.35;;;1.05;;
37559;SDS011;23398;50.928;7.084;2023-04-24T09:18:40;1.40;;;1.30;;
37559;SDS011;23398;50.928;7.084;2023-04-24T09:21:07;2.85;;;1.30;;
37559;SDS011;23398;50.928;7.084;2023-04-24T09:23:34;1.70;;;1.35;;
37559;SDS011;23398;50.928;7.084;2023-04-24T09:26:00;1.50;;;1.40;;
37559;SDS011;23398;50.928;7.084;2023-04-24T09:28:37;1.35;;;1.25;;
37559;SDS011;23398;50.928;7.084;2023-04-24T09:31:14;1.80;;;1.42;;
37559;SDS011;23398;50.928;7.084;2023-04-24T09:34:01;3.42;;;1.48;;
37559;SDS011;23398;50.928;7.084;2023-04-24T09:36:34;2.20;;;1.80;;
37559;SDS011;23398;50.928;7.084;2023-04-24T09:39:08;2.30;;;1.67;;
37559;SDS011;23398;50.928;7.084;2023-04-24T09:41:36;2.42;;;1.88;;
37559;SDS011;23398;50.928;7.084;2023-04-24T09:44:19;1.98;;;1.65;;
37559;SDS011;23398;50.928;7.084;2023-04-24T09:46:50;2.90;;;2.00;;
37559;SDS011;23398;50.928;7.084;2023-04-24T09:49:22;2.10;;;1.90;;
37559;SDS011;23398;50.928;7.084;2023-04-24T09:52:08;3.45;;;2.30;;
37559;SDS011;23398;50.928;7.084;2023-04-24T09:54:35;3.10;;;2.20;;
37559;SDS011;23398;50.928;7.084;2023-04-24T09:57:04;4.03;;;2.22;;
37559;SDS011;23398;50.928;7.084;2023-04-24T09:59:32;2.83;;;2.08;;
37559;SDS011;23398;50.928;7.084;2023-04-24T10:01:58;3.10;;;2.33;;
37559;SDS011;23398;50.928;7.084;2023-04-24T10:04:25;2.53;;;2.25;;
37559;SDS011;23398;50.928;7.084;2023-04-24T10:06:53;3.55;;;2.40;;
37559;SDS011;23398;50.928;7.084;2023-04-24T10:09:24;2.97;;;2.42;;
37559;SDS011;23398;50.928;7.084;2023-04-24T10:11:51;3.33;;;2.20;;
37559;SDS011;23398;50.928;7.084;2023-04-24T10:14:21;3.55;;;2.53;;
37559;SDS011;23398;50.928;7.084;2023-04-24T10:16:48;2.90;;;2.38;;
37559;SDS011;23398;50.928;7.084;2023-04-24T10:19:15;2.83;;;2.40;;
37559;SDS011;23398;50.928;7.084;2023-04-24T10:21:43;4.00;;;2.28;;
37559;SDS011;23398;50.928;7.084;2023-04-24T10:24:15;4.15;;;2.67;;
37559;SDS011;23398;50.928;7.084;2023-04-24T10:26:42;4.20;;;2.65;;
37559;SDS011;23398;50.928;7.084;2023-04-24T10:29:10;3.25;;;2.17;;
37559;SDS011;23398;50.928;7.084;2023-04-24T10:31:37;2.92;;;2.30;;
37559;SDS011;23398;50.928;7.084;2023-04-24T10:34:04;2.92;;;2.22;;
37559;SDS011;23398;50.928;7.084;2023-04-24T10:36:30;4.25;;;2.28;;
37559;SDS011;23398;50.928;7.084;2023-04-24T10:38:59;2.78;;;2.05;;
37559;SDS011;23398;50.928;7.084;2023-04-24T10:41:26;3.30;;;1.95;;
37559;SDS011;23398;50.928;7.084;2023-04-24T10:46:30;3.17;;;2.03;;
37559;SDS011;23398;50.928;7.084;2023-04-24T10:48:56;3.40;;;2.42;;
37559;SDS011;23398;50.928;7.084;2023-04-24T10:51:23;4.43;;;2.22;;
37559;SDS011;23398;50.928;7.084;2023-04-24T10:53:50;3.30;;;2.13;;
37559;SDS011;23398;50.928;7.084;2023-04-24T10:56:16;3.40;;;2.10;;
37559;SDS011;23398;50.928;7.084;2023-04-24T10:58:49;3.20;;;2.03;;
37559;SDS011;23398;50.928;7.084;2023-04-24T11:01:29;2.75;;;1.95;;
37559;SDS011;23398;50.928;7.084;2023-04-24T11:04:00;3.85;;;1.98;;
37559;SDS011;23398;50.928;7.084;2023-04-24T11:06:34;3.55;;;1.92;;
37559;SDS011;23398;50.928;7.084;2023-04-24T11:09:04;4.25;;;1.90;;
37559;SDS011;23398;50.928;7.084;2023-04-24T11:11:31;3.53;;;1.98;;
37559;SDS011;23398;50.928;7.084;2023-04-24T11:19:02;3.90;;;1.70;;
37559;SDS011;23398;50.928;7.084;2023-04-24T11:21:38;3.75;;;1.92;;
37559;SDS011;23398;50.928;7.084;2023-04-24T11:24:25;2.80;;;2.00;;
37559;SDS011;23398;50.928;7.084;2023-04-24T11:27:05;4.28;;;2.30;;
37559;SDS011;23398;50.928;7.084;2023-04-24T11:37:45;4.03;;;1.70;;
37559;SDS011;23398;50.928;7.084;2023-04-24T11:40:12;2.83;;;1.88;;
37559;SDS011;23398;50.928;7.084;2023-04-24T11:42:43;5.32;;;2.58;;
37559;SDS011;23398;50.928;7.084;2023-04-24T11:45:10;4.82;;;2.70;;
37559;SDS011;23398;50.928;7.084;2023-04-24T11:47:38;2.70;;;1.83;;
37559;SDS011;23398;50.928;7.084;2023-04-24T11:50:05;2.55;;;2.08;;
37559;SDS011;23398;50.928;7.084;2023-04-24T11:52:33;2.38;;;1.65;;
37559;SDS011;23398;50.928;7.084;2023-04-24T11:55:02;3.55;;;2.00;;
37559;SDS011;23398;50.928;7.084;2023-04-24T11:57:28;5.05;;;2.33;;
37559;SDS011;23398;50.928;7.084;2023-04-24T11:59:59;5.93;;;2.67;;
37559;SDS011;23398;50.928;7.084;2023-04-24T12:02:26;7.13;;;3.35;;
37559;SDS011;23398;50.928;7.084;2023-04-24T12:04:55;6.25;;;2.80;;
37559;SDS011;23398;50.928;7.084;2023-04-24T12:07:21;5.57;;;3.05;;
37559;SDS011;23398;50.928;7.084;2023-04-24T12:09:49;3.75;;;2.35;;
37559;SDS011;23398;50.928;7.084;2023-04-24T12:12:22;2.88;;;2.13;;
37559;SDS011;23398;50.928;7.084;2023-04-24T12:14:54;3.95;;;2.13;;
37559;SDS011;23398;50.928;7.084;2023-04-24T12:17:29;3.75;;;2.10;;
37559;SDS011;23398;50.928;7.084;2023-04-24T12:19:57;4.30;;;2.30;;
37559;SDS011;23398;50.928;7.084;2023-04-24T12:22:28;3.72;;;2.10;;
37559;SDS011;23398;50.928;7.084;2023-04-24T12:25:13;3.78;;;2.47;;
37559;SDS011;23398;50.928;7.084;2023-04-24T12:27:46;4.68;;;2.55;;
37559;SDS011;23398;50.928;7.084;2023-04-24T12:30:16;3.50;;;2.22;;
37559;SDS011;23398;50.928;7.084;2023-04-24T12:32:45;4.55;;;2.50;;
37559;SDS011;23398;50.928;7.084;2023-04-24T12:35:12;4.75;;;2.40;;
37559;SDS011;23398;50.928;7.084;2023-04-24T12:37:41;5.28;;;2.70;;
37559;SDS011;23398;50.928;7.084;2023-04-24T12:40:09;11.27;;;2.72;;
37559;SDS011;23398;50.928;7.084;2023-04-24T12:42:36;4.72;;;2.95;;
37559;SDS011;23398;50.928;7.084;2023-04-24T12:45:10;5.25;;;2.78;;
37559;SDS011;23398;50.928;7.084;2023-04-24T12:47:37;5.03;;;2.85;;
37559;SDS011;23398;50.928;7.084;2023-04-24T12:50:03;4.53;;;2.80;;
37559;SDS011;23398;50.928;7.084;2023-04-24T12:52:30;5.00;;;2.53;;
37559;SDS011;23398;50.928;7.084;2023-04-24T12:54:57;5.53;;;2.70;;
37559;SDS011;23398;50.928;7.084;2023-04-24T12:57:24;5.57;;;2.50;;
37559;SDS011;23398;50.928;7.084;2023-04-24T12:59:55;6.60;;;2.70;;
37559;SDS011;23398;50.928;7.084;2023-04-24T13:02:22;6.85;;;2.72;;
37559;SDS011;23398;50.928;7.084;2023-04-24T13:04:48;5.32;;;2.50;;
37559;SDS011;23398;50.928;7.084;2023-04-24T13:07:15;5.07;;;2.80;;
37559;SDS011;23398;50.928;7.084;2023-04-24T13:09:41;4.68;;;2.25;;
37559;SDS011;23398;50.928;7.084;2023-04-24T13:12:08;6.85;;;2.75;;
37559;SDS011;23398;50.928;7.084;2023-04-24T13:14:35;4.47;;;2.47;;
37559;SDS011;23398;50.928;7.084;2023-04-24T13:17:01;5.45;;;2.78;;
37559;SDS011;23398;50.928;7.084;2023-04-24T13:19:27;5.18;;;2.30;;
37559;SDS011;23398;50.928;7.084;2023-04-24T13:21:54;5.03;;;2.75;;
37559;SDS011;23398;50.928;7.084;2023-04-24T13:24:21;4.05;;;2.10;;
37559;SDS011;23398;50.928;7.084;2023-04-24T13:26:50;5.78;;;2.53;;
37559;SDS011;23398;50.928;7.084;2023-04-24T13:29:16;5.25;;;2.67;;
37559;SDS011;23398;50.928;7.084;2023-04-24T13:31:42;5.45;;;2.50;;
37559;SDS011;23398;50.928;7.084;2023-04-24T13:34:07;7.07;;;3.05;;
37559;SDS011;23398;50.928;7.084;2023-04-24T13:36:33;6.57;;;3.10;;
37559;SDS011;23398;50.928;7.084;2023-04-24T13:38:59;5.35;;;2.63;;
37559;SDS011;23398;50.928;7.084;2023-04-24T13:41:24;5.13;;;2.78;;
37559;SDS011;23398;50.928;7.084;2023-04-24T13:43:50;5.80;;;3.05;;
37559;SDS011;23398;50.928;7.084;2023-04-24T13:46:15;4.97;;;2.67;;
37559;SDS011;23398;50.928;7.084;2023-04-24T13:48:41;7.22;;;3.17;;
37559;SDS011;23398;50.928;7.084;2023-04-24T13:51:07;5.50;;;3.10;;
37559;SDS011;23398;50.928;7.084;2023-04-24T13:53:32;4.95;;;2.85;;
37559;SDS011;23398;50.928;7.084;2023-04-24T13:56:01;4.50;;;2.80;;
37559;SDS011;23398;50.928;7.084;2023-04-24T13:58:27;4.18;;;2.75;;
37559;SDS011;23398;50.928;7.084;2023-04-24T14:00:52;5.00;;;2.80;;
37559;SDS011;23398;50.928;7.084;2023-04-24T14:03:18;3.78;;;2.40;;
37559;SDS011;23398;50.928;7.084;2023-04-24T14:05:43;3.40;;;2.63;;
37559;SDS011;23398;50.928;7.084;2023-04-24T14:08:09;4.47;;;2.60;;
37559;SDS011;23398;50.928;7.084;2023-04-24T14:10:35;6.47;;;2.95;;
37559;SDS011;23398;50.928;7.084;2023-04-24T14:13:00;4.63;;;3.17;;
37559;SDS011;23398;50.928;7.084;2023-04-24T14:15:26;6.53;;;3.03;;
37559;SDS011;23398;50.928;7.084;2023-04-24T14:17:51;3.30;;;2.78;;
37559;SDS011;23398;50.928;7.084;2023-04-24T14:20:17;6.38;;;2.30;;
37559;SDS011;23398;50.928;7.084;2023-04-24T14:22:43;5.88;;;3.10;;
37559;SDS011;23398;50.928;7.084;2023-04-24T14:25:09;4.40;;;2.30;;
37559;SDS011;23398;50.928;7.084;2023-04-24T14:27:34;4.97;;;2.65;;
37559;SDS011;23398;50.928;7.084;2023-04-24T14:30:00;4.70;;;2.42;;
37559;SDS011;23398;50.928;7.084;2023-04-24T14:32:26;3.80;;;2.50;;
37559;SDS011;23398;50.928;7.084;2023-04-24T14:34:52;4.47;;;2.22;;
37559;SDS011;23398;50.928;7.084;2023-04-24T14:37:17;4.03;;;2.13;;
37559;SDS011;23398;50.928;7.084;2023-04-24T14:39:44;4.65;;;2.67;;
37559;SDS011;23398;50.928;7.084;2023-04-24T14:42:10;6.82;;;2.70;;
37559;SDS011;23398;50.928;7.084;2023-04-24T14:44:36;3.53;;;2.35;;
37559;SDS011;23398;50.928;7.084;2023-04-24T14:47:01;5.03;;;2.63;;
37559;SDS011;23398;50.928;7.084;2023-04-24T14:49:27;3.90;;;2.40;;
37559;SDS011;23398;50.928;7.084;2023-04-24T14:51:52;4.05;;;2.67;;
37559;SDS011;23398;50.928;7.084;2023-04-24T14:54:18;3.75;;;2.53;;
37559;SDS011;23398;50.928;7.084;2023-04-24T14:56:44;3.88;;;2.53;;
37559;SDS011;23398;50.928;7.084;2023-04-24T14:59:10;3.92;;;2.33;;
37559;SDS011;23398;50.928;7.084;2023-04-24T15:01:35;3.97;;;2.47;;